Time;durP1;ratioP1;P1;durP2;ratioP2;P2;SDS_P1;SDS_P2;PMS_P1;PMS_P2;Temp;Humidity;BMP_temperature;BMP_pressure;BME280_temperature;BME280_humidity;BME280_pressure;Samples;Min_cycle;Max_cycle;Signal;HPM_P1;HPM_P2
2021/10/05 00:02:12;;;;;;;10.98;6.78;;;;;;;-144.51;100.00;69251.94;5055565;28;20033;-64
2021/10/05 00:04:57;;;;;;;8.40;5.90;;;;;;;-144.51;100.00;69251.94;5053405;28;20033;-66
2021/10/05 00:07:42;;;;;;;11.63;5.88;;;;;;;-144.51;100.00;69251.94;5051939;28;20049;-65
2021/10/05 00:10:27;;;;;;;10.10;6.10;;;;;;;-144.51;100.00;69251.94;5051270;28;20048;-65
2021/10/05 00:13:12;;;;;;;8.10;5.45;;;;;;;-144.51;100.00;69251.94;5054985;28;20037;-64
2021/10/05 00:15:57;;;;;;;11.63;6.55;;;;;;;-144.51;100.00;69251.94;5049634;28;20507;-64
2021/10/05 00:18:42;;;;;;;10.93;6.38;;;;;;;-144.51;100.00;69251.94;5050341;28;20814;-63
2021/10/05 00:21:27;;;;;;;11.40;6.15;;;;;;;-144.51;100.00;69251.94;5055725;28;20089;-64
2021/10/05 00:24:12;;;;;;;11.98;7.18;;;;;;;-144.51;100.00;69251.94;5054202;28;20037;-64
2021/10/05 00:26:57;;;;;;;8.05;6.60;;;;;;;-144.51;100.00;69251.94;5053982;28;20037;-64
2021/10/05 00:29:42;;;;;;;10.88;6.55;;;;;;;-144.51;100.00;69251.94;5053596;28;20052;-67
2021/10/05 00:32:26;;;;;;;15.57;6.88;;;;;;;-144.51;100.00;69251.94;5054786;28;20503;-64
2021/10/05 00:35:11;;;;;;;11.85;5.57;;;;;;;-144.51;100.00;69251.94;5055267;28;20044;-65
2021/10/05 00:37:56;;;;;;;10.43;6.22;;;;;;;-144.51;100.00;69251.94;5055944;28;20045;-65
2021/10/05 00:40:41;;;;;;;8.30;5.75;;;;;;;-144.51;100.00;69251.94;5056304;28;20037;-65
2021/10/05 00:43:26;;;;;;;7.75;5.50;;;;;;;-144.51;100.00;69251.94;5055395;28;20041;-65
2021/10/05 00:46:11;;;;;;;11.40;6.20;;;;;;;-144.51;100.00;69251.94;5059400;28;20041;-64
2021/10/05 00:48:56;;;;;;;10.07;6.15;;;;;;;-144.51;100.00;69251.94;5056078;28;20033;-65
2021/10/05 00:51:41;;;;;;;10.50;5.82;;;;;;;-144.51;100.00;69251.94;5054984;28;20048;-65
2021/10/05 00:54:26;;;;;;;13.48;8.23;;;;;;;-144.51;100.00;69251.94;5058076;28;20036;-66
2021/10/05 00:57:12;;;;;;;8.65;6.55;;;;;;;-144.51;100.00;69251.94;5057874;28;20045;-65
2021/10/05 00:59:57;;;;;;;12.52;6.93;;;;;;;-144.51;100.00;69251.94;5053001;28;20045;-64
2021/10/05 01:02:44;;;;;;;9.73;6.30;;;;;;;-144.51;100.00;69251.94;5058962;28;20492;-65
2021/10/05 01:05:28;;;;;;;9.35;6.15;;;;;;;-144.51;100.00;69251.94;5057429;28;20037;-65
2021/10/05 01:08:21;;;;;;;9.23;6.68;;;;;;;-144.51;100.00;69251.94;5053972;28;20037;-64
2021/10/05 01:11:06;;;;;;;13.88;6.88;;;;;;;-144.51;100.00;69251.94;5059084;28;20041;-65
2021/10/05 01:13:51;;;;;;;8.30;6.00;;;;;;;-144.51;100.00;69251.94;5056618;28;20040;-65
2021/10/05 01:16:37;;;;;;;10.50;6.03;;;;;;;-144.51;100.00;69251.94;5055813;28;20041;-64
2021/10/05 01:19:22;;;;;;;16.83;6.63;;;;;;;-144.51;100.00;69251.94;5055350;28;20045;-64
2021/10/05 01:22:07;;;;;;;12.75;7.35;;;;;;;-144.51;100.00;69251.94;5054003;28;20052;-66
2021/10/05 01:24:52;;;;;;;11.07;7.00;;;;;;;-144.51;100.00;69251.94;5055787;28;20044;-65
2021/10/05 01:27:42;;;;;;;9.43;6.93;;;;;;;-144.51;100.00;69251.94;5058032;28;20480;-65
2021/10/05 01:30:27;;;;;;;11.18;7.07;;;;;;;-144.51;100.00;69251.94;5057216;28;20049;-66
2021/10/05 01:33:12;;;;;;;14.32;7.40;;;;;;;-144.51;100.00;69251.94;5054471;28;20036;-66
2021/10/05 01:35:57;;;;;;;15.63;6.78;;;;;;;-144.51;100.00;69251.94;5056233;28;20041;-67
2021/10/05 01:38:42;;;;;;;9.07;5.43;;;;;;;-144.51;100.00;69251.94;5054001;28;20044;-65
2021/10/05 01:41:27;;;;;;;10.20;5.88;;;;;;;-144.51;100.00;69251.94;5055743;28;20052;-66
2021/10/05 01:44:12;;;;;;;9.10;6.32;;;;;;;-144.51;100.00;69251.94;5055748;28;20041;-67
2021/10/05 01:46:57;;;;;;;9.15;5.72;;;;;;;-144.51;100.00;69251.94;5056086;28;20032;-65
2021/10/05 01:49:42;;;;;;;9.10;6.25;;;;;;;-144.51;100.00;69251.94;5053670;28;20037;-65
2021/10/05 01:52:29;;;;;;;9.70;6.15;;;;;;;-144.51;100.00;69251.94;5053299;28;20052;-65
2021/10/05 01:55:16;;;;;;;8.77;6.75;;;;;;;-144.51;100.00;69251.94;5058000;28;20456;-66
2021/10/05 01:58:00;;;;;;;11.52;6.72;;;;;;;-144.51;100.00;69251.94;5054658;28;20036;-66
2021/10/05 02:00:45;;;;;;;10.07;5.90;;;;;;;-144.51;100.00;69251.94;5052814;28;20400;-64
2021/10/05 02:03:30;;;;;;;9.07;6.47;;;;;;;-144.51;100.00;69251.94;5056753;28;20037;-64
2021/10/05 02:06:15;;;;;;;13.40;6.25;;;;;;;-144.51;100.00;69251.94;5053979;28;20037;-64
2021/10/05 02:09:01;;;;;;;10.13;6.40;;;;;;;-144.51;100.00;69251.94;5052325;28;20041;-64
2021/10/05 02:11:46;;;;;;;13.02;7.22;;;;;;;-144.51;100.00;69251.94;5056385;28;20045;-64
2021/10/05 02:14:30;;;;;;;11.15;5.70;;;;;;;-144.51;100.00;69251.94;5054919;28;20037;-65
2021/10/05 02:17:15;;;;;;;9.00;6.03;;;;;;;-144.51;100.00;69251.94;5052205;28;20037;-65
2021/10/05 02:20:01;;;;;;;13.60;5.65;;;;;;;-144.51;100.00;69251.94;5052272;28;20037;-66
2021/10/05 02:22:47;;;;;;;21.10;6.43;;;;;;;-144.51;100.00;69251.94;5055825;28;20041;-65
2021/10/05 02:25:33;;;;;;;13.90;7.40;;;;;;;-144.51;100.00;69251.94;5049907;28;20037;-67
2021/10/05 02:28:17;;;;;;;10.63;6.68;;;;;;;-144.51;100.00;69251.94;5057720;28;20029;-67
2021/10/05 02:31:02;;;;;;;8.63;6.72;;;;;;;-144.51;100.00;69251.94;5052316;28;20037;-65
2021/10/05 02:33:47;;;;;;;17.70;8.20;;;;;;;-144.51;100.00;69251.94;5050831;28;20041;-68
2021/10/05 02:36:33;;;;;;;73.13;20.67;;;;;;;-144.51;100.00;69251.94;5062680;28;20045;-65
2021/10/05 02:39:17;;;;;;;28.95;11.93;;;;;;;-144.51;100.00;69251.94;5054376;28;20040;-66
2021/10/05 02:42:03;;;;;;;21.13;9.93;;;;;;;-144.51;100.00;69251.94;5056951;28;20400;-67
2021/10/05 02:44:48;;;;;;;23.05;10.57;;;;;;;-144.51;100.00;69251.94;5057101;28;20049;-66
2021/10/05 02:47:33;;;;;;;23.75;10.35;;;;;;;-144.51;100.00;69251.94;5053127;28;20032;-66
2021/10/05 02:50:18;;;;;;;25.00;10.73;;;;;;;-144.51;100.00;69251.94;5055191;28;20049;-68
2021/10/05 02:53:03;;;;;;;24.50;10.40;;;;;;;-144.51;100.00;69251.94;5058505;28;20512;-65
2021/10/05 02:55:49;;;;;;;16.95;9.38;;;;;;;-144.51;100.00;69251.94;5055869;28;20028;-68
2021/10/05 02:58:33;;;;;;;15.10;8.98;;;;;;;-144.51;100.00;69251.94;5053955;28;20435;-67
2021/10/05 03:01:18;;;;;;;20.13;9.48;;;;;;;-144.51;100.00;69251.94;5052231;28;20033;-68
2021/10/05 03:04:03;;;;;;;11.82;7.95;;;;;;;-144.51;100.00;69251.94;5055340;28;20048;-67
2021/10/05 03:06:48;;;;;;;15.48;9.45;;;;;;;-144.51;100.00;69251.94;5054092;28;20037;-68
2021/10/05 03:09:34;;;;;;;13.95;8.60;;;;;;;-144.51;100.00;69251.94;5052576;28;20044;-66
2021/10/05 03:12:19;;;;;;;13.43;10.18;;;;;;;-144.51;100.00;69251.94;5056298;28;20040;-66
2021/10/05 03:15:04;;;;;;;17.90;9.65;;;;;;;-144.51;100.00;69251.94;5050766;28;20048;-66
2021/10/05 03:17:48;;;;;;;15.57;9.65;;;;;;;-144.51;100.00;69251.94;5048717;28;20721;-66
2021/10/05 03:20:33;;;;;;;20.13;10.60;;;;;;;-144.51;100.00;69251.94;5057100;28;20045;-66
2021/10/05 03:23:18;;;;;;;17.15;9.85;;;;;;;-144.51;100.00;69251.94;5047741;28;20037;-65
2021/10/05 03:26:04;;;;;;;16.98;10.70;;;;;;;-144.51;100.00;69251.94;5051759;28;20037;-66
2021/10/05 03:28:49;;;;;;;18.05;9.05;;;;;;;-144.51;100.00;69251.94;5049425;28;20037;-65
2021/10/05 03:31:34;;;;;;;15.05;10.25;;;;;;;-144.51;100.00;69251.94;5052347;28;20404;-65
2021/10/05 03:34:19;;;;;;;15.68;10.38;;;;;;;-144.51;100.00;69251.94;5050817;28;20048;-65
2021/10/05 03:37:04;;;;;;;14.23;9.07;;;;;;;-144.51;100.00;69251.94;5055332;28;20484;-66
2021/10/05 03:39:49;;;;;;;15.75;9.20;;;;;;;-144.51;100.00;69251.94;5096797;22;20048;-83
2021/10/05 03:42:33;;;;;;;11.88;8.13;;;;;;;-144.51;100.00;69251.94;5101124;28;20040;-84
2021/10/05 03:45:19;;;;;;;15.25;8.05;;;;;;;-144.51;100.00;69251.94;5095629;28;20036;-86
2021/10/05 03:48:04;;;;;;;14.95;9.65;;;;;;;-144.51;100.00;69251.94;5096887;28;20048;-86
2021/10/05 03:50:50;;;;;;;14.65;8.45;;;;;;;-144.51;100.00;69251.94;5081357;28;20036;-86
2021/10/05 03:53:34;;;;;;;16.63;9.15;;;;;;;-144.51;100.00;69251.94;5080928;28;20048;-85
2021/10/05 03:56:19;;;;;;;13.73;8.45;;;;;;;-144.51;100.00;69251.94;5073492;28;20037;-86
2021/10/05 03:59:04;;;;;;;14.73;8.32;;;;;;;-144.51;100.00;69251.94;5082221;28;20040;-86
2021/10/05 04:01:48;;;;;;;16.02;8.68;;;;;;;-144.51;100.00;69251.94;5082525;28;20033;-85
2021/10/05 04:04:33;;;;;;;12.52;7.85;;;;;;;-144.51;100.00;69251.94;5076630;28;20041;-86
2021/10/05 04:07:18;;;;;;;21.98;9.25;;;;;;;-144.51;100.00;69251.94;5081088;28;20040;-86
2021/10/05 04:10:05;;;;;;;12.05;7.57;;;;;;;-144.51;100.00;69251.94;5081448;28;20040;-85
2021/10/05 04:12:49;;;;;;;16.27;8.48;;;;;;;-144.51;100.00;69251.94;5083916;28;20404;-86
2021/10/05 04:15:35;;;;;;;13.95;7.68;;;;;;;-144.51;100.00;69251.94;5078755;28;20032;-86
2021/10/05 04:18:20;;;;;;;12.20;7.60;;;;;;;-144.51;100.00;69251.94;5080411;28;20037;-86
2021/10/05 04:21:05;;;;;;;10.82;7.55;;;;;;;-144.51;100.00;69251.94;5081683;28;20036;-85
2021/10/05 04:23:50;;;;;;;12.32;7.65;;;;;;;-144.51;100.00;69251.94;5077292;28;20037;-87
2021/10/05 04:26:35;;;;;;;13.70;8.40;;;;;;;-144.51;100.00;69251.94;5081799;28;20044;-86
2021/10/05 04:29:21;;;;;;;13.45;7.85;;;;;;;-144.51;100.00;69251.94;5077289;28;20036;-84
2021/10/05 04:32:06;;;;;;;13.02;8.43;;;;;;;-144.51;100.00;69251.94;5077469;28;20048;-86
2021/10/05 04:34:51;;;;;;;12.80;7.40;;;;;;;-144.51;100.00;69251.94;5084118;28;20041;-82
2021/10/05 04:37:36;;;;;;;13.52;7.10;;;;;;;-144.51;100.00;69251.94;5082702;28;20052;-83
2021/10/05 04:40:21;;;;;;;16.17;7.15;;;;;;;-144.51;100.00;69251.94;5078768;28;20044;-83
2021/10/05 04:43:06;;;;;;;14.32;7.75;;;;;;;-144.51;100.00;69251.94;5085808;28;20400;-82
2021/10/05 04:45:51;;;;;;;16.25;7.57;;;;;;;-144.51;100.00;69251.94;5089618;28;20416;-83
2021/10/05 04:48:36;;;;;;;12.30;7.18;;;;;;;-144.51;100.00;69251.94;5082236;28;20049;-82
2021/10/05 04:51:21;;;;;;;12.55;7.45;;;;;;;-144.51;100.00;69251.94;5092551;28;20033;-82
2021/10/05 04:54:05;;;;;;;10.95;7.00;;;;;;;-144.51;100.00;69251.94;5089562;28;20045;-83
2021/10/05 04:56:51;;;;;;;18.88;8.43;;;;;;;-144.51;100.00;69251.94;5089345;28;20036;-82
2021/10/05 04:59:36;;;;;;;17.30;8.57;;;;;;;-144.51;100.00;69251.94;5088276;28;20041;-83
2021/10/05 05:02:21;;;;;;;24.38;7.38;;;;;;;-144.51;100.00;69251.94;5086555;28;20492;-82
2021/10/05 05:05:07;;;;;;;20.90;7.07;;;;;;;-144.51;100.00;69251.94;5085965;28;20045;-81
2021/10/05 05:07:57;;;;;;;11.13;6.93;;;;;;;-144.51;100.00;69251.94;5092026;28;20504;-82
2021/10/05 05:10:42;;;;;;;12.13;7.97;;;;;;;-144.51;100.00;69251.94;5082315;28;20669;-82
2021/10/05 05:13:27;;;;;;;14.80;6.90;;;;;;;-144.51;100.00;69251.94;5086740;28;20048;-82
2021/10/05 05:16:12;;;;;;;13.52;8.13;;;;;;;-144.51;100.00;69251.94;5094393;28;20028;-80
2021/10/05 05:18:57;;;;;;;13.38;8.02;;;;;;;-144.51;100.00;69251.94;5091478;28;20036;-83
2021/10/05 05:21:43;;;;;;;15.23;8.35;;;;;;;-144.51;100.00;69251.94;5091037;28;20040;-83
2021/10/05 05:24:27;;;;;;;13.45;7.60;;;;;;;-144.51;100.00;69251.94;5092954;28;20569;-83
2021/10/05 05:27:12;;;;;;;15.60;8.13;;;;;;;-144.51;100.00;69251.94;5091773;28;20045;-83
2021/10/05 05:29:58;;;;;;;13.98;8.20;;;;;;;-144.51;100.00;69251.94;5084104;28;20025;-82
2021/10/05 05:32:43;;;;;;;13.25;7.55;;;;;;;-144.51;100.00;69251.94;5090466;28;20048;-82
2021/10/05 05:35:28;;;;;;;13.40;7.65;;;;;;;-144.51;100.00;69251.94;5089649;28;20036;-81
2021/10/05 05:38:13;;;;;;;16.80;7.22;;;;;;;-144.51;100.00;69251.94;5089247;28;20044;-80
2021/10/05 05:40:58;;;;;;;9.73;6.90;;;;;;;-144.51;100.00;69251.94;5078964;28;20033;-79
2021/10/05 05:43:43;;;;;;;11.30;7.05;;;;;;;-144.51;100.00;69251.94;5089656;28;20041;-81
2021/10/05 05:46:27;;;;;;;;;;;;;;;-144.51;100.00;69251.94;5092677;28;20044;-80
2021/10/05 05:49:13;;;;;;;13.40;6.90;;;;;;;-144.51;100.00;69251.94;5089595;28;19913;-81
2021/10/05 05:51:58;;;;;;;10.27;6.60;;;;;;;-144.51;100.00;69251.94;5092635;28;20040;-80
2021/10/05 05:54:43;;;;;;;10.25;6.45;;;;;;;-144.51;100.00;69251.94;5090843;28;20040;-82
2021/10/05 05:57:28;;;;;;;10.05;5.80;;;;;;;-144.51;100.00;69251.94;5089371;28;20040;-79
2021/10/05 06:00:14;;;;;;;13.07;6.55;;;;;;;-144.51;100.00;69251.94;5088094;28;20040;-81
2021/10/05 06:02:59;;;;;;;21.52;7.07;;;;;;;-144.51;100.00;69251.94;5089240;28;20040;-81
2021/10/05 06:05:44;;;;;;;13.82;6.80;;;;;;;-144.51;100.00;69251.94;5089926;28;20044;-79
2021/10/05 06:08:29;;;;;;;10.77;5.70;;;;;;;-144.51;100.00;69251.94;5093741;28;20380;-81
2021/10/05 06:11:14;;;;;;;8.55;5.82;;;;;;;-144.51;100.00;69251.94;5091864;28;20040;-81
2021/10/05 06:13:59;;;;;;;8.35;6.65;;;;;;;-144.51;100.00;69251.94;5088898;28;20489;-81
2021/10/05 06:16:44;;;;;;;12.05;6.78;;;;;;;-144.51;100.00;69251.94;5093867;28;20063;-81
2021/10/05 06:19:30;;;;;;;11.88;6.97;;;;;;;-144.51;100.00;69251.94;5091747;28;20041;-81
2021/10/05 06:22:14;;;;;;;12.77;6.60;;;;;;;-144.51;100.00;69251.94;5088677;28;20036;-81
2021/10/05 06:25:03;;;;;;;12.13;6.40;;;;;;;-144.51;100.00;69251.94;5092300;28;20504;-81
2021/10/05 06:27:48;;;;;;;10.50;6.20;;;;;;;-144.51;100.00;69251.94;5091294;28;20049;-81
2021/10/05 06:30:33;;;;;;;9.65;6.50;;;;;;;-144.51;100.00;69251.94;5087813;28;20041;-81
2021/10/05 06:33:18;;;;;;;12.65;8.13;;;;;;;-144.51;100.00;69251.94;5092818;28;20044;-81
2021/10/05 06:36:03;;;;;;;9.45;6.07;;;;;;;-144.51;100.00;69251.94;5090301;28;20040;-80
2021/10/05 06:38:48;;;;;;;11.23;6.40;;;;;;;-144.51;100.00;69251.94;5089377;28;20041;-81
2021/10/05 06:41:33;;;;;;;10.38;7.45;;;;;;;-144.51;100.00;69251.94;5079121;28;20036;-81
2021/10/05 06:44:17;;;;;;;12.98;7.75;;;;;;;-144.51;100.00;69251.94;5091531;28;20408;-81
2021/10/05 06:47:02;;;;;;;12.30;6.75;;;;;;;-144.51;100.00;69251.94;5090092;28;20036;-81
2021/10/05 06:49:47;;;;;;;11.57;6.60;;;;;;;-144.51;100.00;69251.94;5090116;28;20732;-80
2021/10/05 06:52:32;;;;;;;9.18;5.90;;;;;;;-144.51;100.00;69251.94;5091793;28;20036;-81
2021/10/05 06:55:17;;;;;;;11.15;6.47;;;;;;;-144.51;100.00;69251.94;5086928;28;20404;-81
2021/10/05 06:58:02;;;;;;;9.90;6.88;;;;;;;-144.51;100.00;69251.94;5087100;28;20041;-80
2021/10/05 07:00:47;;;;;;;8.73;6.18;;;;;;;-144.51;100.00;69251.94;5087964;28;20048;-82
2021/10/05 07:03:32;;;;;;;14.05;7.22;;;;;;;-144.51;100.00;69251.94;5089790;28;20051;-81
2021/10/05 07:06:17;;;;;;;8.30;5.65;;;;;;;-144.51;100.00;69251.94;5085994;28;20040;-82
2021/10/05 07:09:02;;;;;;;12.13;5.78;;;;;;;-144.51;100.00;69251.94;5090035;28;20039;-81
2021/10/05 07:11:48;;;;;;;7.85;4.93;;;;;;;-144.51;100.00;69251.94;5089801;28;20041;-82
2021/10/05 07:14:32;;;;;;;10.95;4.85;;;;;;;-144.51;100.00;69251.94;5088088;28;20504;-82
2021/10/05 07:17:17;;;;;;;;;;;;;;;-144.51;100.00;69251.94;5092829;28;20044;-82
2021/10/05 07:20:04;;;;;;;5.55;4.22;;;;;;;-144.51;100.00;69251.94;5087421;28;19916;-82
2021/10/05 07:22:49;;;;;;;7.03;3.30;;;;;;;-144.51;100.00;69251.94;5088991;28;20036;-81
2021/10/05 07:25:33;;;;;;;8.23;5.03;;;;;;;-144.51;100.00;69251.94;5090913;28;20036;-80
2021/10/05 07:28:18;;;;;;;9.07;3.45;;;;;;;-144.51;100.00;69251.94;5089451;28;20434;-81
2021/10/05 07:31:03;;;;;;;5.43;3.25;;;;;;;-144.51;100.00;69251.94;5088903;28;20036;-81
2021/10/05 07:33:48;;;;;;;7.40;2.78;;;;;;;-144.51;100.00;69251.94;5092878;28;20044;-81
2021/10/05 07:36:34;;;;;;;7.45;2.70;;;;;;;-144.51;100.00;69251.94;5089092;28;20044;-81
2021/10/05 07:39:19;;;;;;;7.13;3.00;;;;;;;-144.51;100.00;69251.94;5087769;28;20040;-81
2021/10/05 07:42:04;;;;;;;8.52;2.42;;;;;;;-144.51;100.00;69251.94;5092882;28;20036;-81
2021/10/05 07:44:50;;;;;;;6.05;2.70;;;;;;;-144.51;100.00;69251.94;5091419;28;20040;-81
2021/10/05 07:47:35;;;;;;;4.60;2.30;;;;;;;-144.51;100.00;69251.94;5087619;28;20040;-81
2021/10/05 07:50:22;;;;;;;8.80;2.45;;;;;;;-144.51;100.00;69251.94;5088548;28;20041;-81
2021/10/05 07:53:07;;;;;;;6.20;1.95;;;;;;;-144.51;100.00;69251.94;5091445;28;20037;-81
2021/10/05 07:55:52;;;;;;;4.43;1.85;;;;;;;-144.51;100.00;69251.94;5090550;28;20036;-81
2021/10/05 07:58:37;;;;;;;9.07;2.17;;;;;;;-144.51;100.00;69251.94;5091751;28;20040;-81
2021/10/05 08:01:22;;;;;;;5.95;1.90;;;;;;;-144.51;100.00;69251.94;5090420;28;20036;-80
2021/10/05 08:04:07;;;;;;;11.60;1.98;;;;;;;-144.51;100.00;69251.94;5088896;28;20472;-78
2021/10/05 08:06:52;;;;;;;4.75;1.70;;;;;;;-144.51;100.00;69251.94;5094096;28;20040;-80
2021/10/05 08:09:37;;;;;;;6.35;2.25;;;;;;;-144.51;100.00;69251.94;5090324;28;20517;-81
2021/10/05 08:12:23;;;;;;;5.50;1.58;;;;;;;-144.51;100.00;69251.94;5088566;28;20044;-81
2021/10/05 08:15:08;;;;;;;6.70;1.88;;;;;;;-144.51;100.00;69251.94;5093072;28;20496;-80
2021/10/05 08:17:55;;;;;;;5.55;1.77;;;;;;;-144.51;100.00;69251.94;5088553;28;20044;-81
2021/10/05 08:20:41;;;;;;;5.50;1.67;;;;;;;-144.51;100.00;69251.94;5087226;28;20044;-82
2021/10/05 08:23:26;;;;;;;6.82;1.95;;;;;;;-144.51;100.00;69251.94;5086940;28;20479;-79
2021/10/05 08:26:11;;;;;;;5.50;1.75;;;;;;;-144.51;100.00;69251.94;5092065;28;20044;-80
2021/10/05 08:28:57;;;;;;;2.08;1.48;;;;;;;-144.51;100.00;69251.94;5086154;28;20033;-81
2021/10/05 08:31:41;;;;;;;6.65;1.70;;;;;;;-144.51;100.00;69251.94;5087018;28;20049;-81
2021/10/05 08:34:26;;;;;;;5.53;1.67;;;;;;;-144.51;100.00;69251.94;5091539;28;20036;-81
2021/10/05 08:37:11;;;;;;;4.43;2.83;;;;;;;-144.51;100.00;69251.94;5089975;28;20420;-80
2021/10/05 08:39:56;;;;;;;5.93;1.80;;;;;;;-144.51;100.00;69251.94;5086342;28;20033;-81
2021/10/05 08:42:41;;;;;;;5.20;1.98;;;;;;;-144.51;100.00;69251.94;5090408;28;20047;-80
2021/10/05 08:45:27;;;;;;;4.68;1.80;;;;;;;-144.51;100.00;69251.94;5088176;28;20052;-81
2021/10/05 08:48:12;;;;;;;5.55;1.67;;;;;;;-144.51;100.00;69251.94;5091564;28;20041;-81
2021/10/05 08:51:00;;;;;;;5.50;1.77;;;;;;;-144.51;100.00;69251.94;5093723;28;20036;-79
2021/10/05 08:53:45;;;;;;;5.72;1.65;;;;;;;-144.51;100.00;69251.94;5092707;28;20496;-81
2021/10/05 08:56:30;;;;;;;4.05;2.08;;;;;;;-144.51;100.00;69251.94;5092284;28;20043;-80
2021/10/05 08:59:15;;;;;;;4.03;1.77;;;;;;;-144.51;100.00;69251.94;5093003;28;20040;-81
2021/10/05 09:02:14;;;;;;;7.28;1.63;;;;;;;-144.51;100.00;69251.94;5092392;28;20036;-79
2021/10/05 09:04:59;;;;;;;5.93;1.30;;;;;;;-144.51;100.00;69251.94;5091948;28;20021;-82
2021/10/05 09:07:47;;;;;;;8.70;2.00;;;;;;;-144.51;100.00;69251.94;5093774;28;20041;-80
2021/10/05 09:10:36;;;;;;;5.60;1.55;;;;;;;-144.51;100.00;69251.94;5091080;28;20420;-80
2021/10/05 09:13:35;;;;;;;6.72;1.27;;;;;;;-144.51;100.00;69251.94;5089959;28;20045;-81
2021/10/05 09:16:30;;;;;;;5.40;1.45;;;;;;;-144.51;100.00;69251.94;5092780;28;20036;-80
2021/10/05 09:19:17;;;;;;;6.55;1.30;;;;;;;-144.51;100.00;69251.94;5090117;28;20032;-80
2021/10/05 09:22:04;;;;;;;2.55;1.17;;;;;;;-144.51;100.00;69251.94;5094590;28;20040;-80
2021/10/05 09:24:51;;;;;;;4.68;2.13;;;;;;;-144.51;100.00;69251.94;5093763;28;20416;-80
2021/10/05 09:27:47;;;;;;;2.55;1.17;;;;;;;-144.51;100.00;69251.94;5089524;28;20044;-81
2021/10/05 09:30:32;;;;;;;6.03;1.60;;;;;;;-144.51;100.00;69251.94;5090906;28;20025;-80
2021/10/05 09:33:17;;;;;;;3.92;1.45;;;;;;;-144.51;100.00;69251.94;5080937;28;20045;-79
2021/10/05 09:36:03;;;;;;;4.03;1.20;;;;;;;-144.51;100.00;69251.94;5079541;28;20040;-80
2021/10/05 09:38:48;;;;;;;3.72;1.60;;;;;;;-144.51;100.00;69251.94;5092595;28;20044;-81
2021/10/05 09:41:33;;;;;;;9.27;1.58;;;;;;;-144.51;100.00;69251.94;5137906;22;20046;-67
2021/10/05 09:44:25;;;;;;;5.25;1.30;;;;;;;-144.51;100.00;69251.94;5114349;28;20418;-67
2021/10/05 09:47:09;;;;;;;10.50;1.70;;;;;;;-144.51;100.00;69251.94;5113625;28;20031;-67
2021/10/05 09:49:54;;;;;;;10.38;2.08;;;;;;;-144.51;100.00;69251.94;5112493;28;20036;-67
2021/10/05 09:52:44;;;;;;;8.55;1.80;;;;;;;-144.51;100.00;69251.94;5116218;28;20035;-67
2021/10/05 09:55:36;;;;;;;6.75;1.30;;;;;;;-144.51;100.00;69251.94;5112361;28;20040;-67
2021/10/05 09:58:21;;;;;;;16.65;1.63;;;;;;;-144.51;100.00;69251.94;5117299;28;20403;-69
2021/10/05 10:01:06;;;;;;;3.03;1.40;;;;;;;-144.51;100.00;69251.94;5114121;28;20039;-69
2021/10/05 10:03:52;;;;;;;7.55;1.40;;;;;;;-144.51;100.00;69251.94;5116009;28;20032;-69
2021/10/05 10:06:38;;;;;;;8.88;1.73;;;;;;;-144.51;100.00;69251.94;5117956;28;20039;-69
2021/10/05 10:09:24;;;;;;;4.07;1.15;;;;;;;-144.51;100.00;69251.94;5115179;28;20031;-68
2021/10/05 10:12:09;;;;;;;6.22;1.17;;;;;;;-144.51;100.00;69251.94;5115718;28;20040;-68
2021/10/05 10:14:54;;;;;;;7.45;1.75;;;;;;;-144.51;100.00;69251.94;5117268;28;20035;-68
2021/10/05 10:17:39;;;;;;;4.22;1.15;;;;;;;-144.51;100.00;69251.94;5110813;28;20413;-68
2021/10/05 10:20:26;;;;;;;6.13;0.95;;;;;;;-144.51;100.00;69251.94;5108766;28;20040;-69
2021/10/05 10:23:20;;;;;;;7.93;0.95;;;;;;;-144.51;100.00;69251.94;5111154;28;20055;-69
2021/10/05 10:26:07;;;;;;;3.85;1.20;;;;;;;-144.51;100.00;69251.94;5114397;28;20032;-69
2021/10/05 10:28:58;;;;;;;4.85;1.40;;;;;;;-144.51;100.00;69251.94;5114932;28;20040;-69
2021/10/05 10:31:43;;;;;;;4.97;0.98;;;;;;;-144.51;100.00;69251.94;5111874;28;20031;-69
2021/10/05 10:34:29;;;;;;;4.53;1.40;;;;;;;-144.51;100.00;69251.94;5114926;28;20035;-69
2021/10/05 10:37:19;;;;;;;9.63;1.55;;;;;;;-144.51;100.00;69251.94;5112418;28;20047;-68
2021/10/05 10:40:04;;;;;;;8.38;1.63;;;;;;;-144.51;100.00;69251.94;5112822;28;20047;-66
2021/10/05 10:42:49;;;;;;;6.82;1.50;;;;;;;-144.51;100.00;69251.94;5113938;28;20040;-66
2021/10/05 10:45:46;;;;;;;5.00;1.45;;;;;;;-144.51;100.00;69251.94;5112807;28;20051;-66
2021/10/05 10:48:37;;;;;;;4.25;1.40;;;;;;;-144.51;100.00;69251.94;5117001;28;20036;-66
2021/10/05 10:51:27;;;;;;;8.27;1.60;;;;;;;-144.51;100.00;69251.94;5114224;28;20309;-66
2021/10/05 10:54:13;;;;;;;6.18;1.23;;;;;;;-144.51;100.00;69251.94;5113112;28;20036;-66
2021/10/05 10:57:05;;;;;;;11.02;1.65;;;;;;;-144.51;100.00;69251.94;5117507;28;20412;-66
2021/10/05 10:59:50;;;;;;;11.00;1.55;;;;;;;-144.51;100.00;69251.94;5112800;28;20035;-66
2021/10/05 11:02:49;;;;;;;7.40;1.55;;;;;;;-144.51;100.00;69251.94;5108146;28;20055;-66
2021/10/05 11:05:35;;;;;;;3.55;1.80;;;;;;;-144.51;100.00;69251.94;5113833;28;20043;-66
2021/10/05 11:08:20;;;;;;;7.15;2.17;;;;;;;-144.51;100.00;69251.94;5109645;28;20032;-66
2021/10/05 11:11:05;;;;;;;5.22;1.20;;;;;;;-144.51;100.00;69251.94;5117451;28;20530;-66
2021/10/05 11:13:50;;;;;;;6.68;1.23;;;;;;;-144.51;100.00;69251.94;5112784;28;20048;-66
2021/10/05 11:16:38;;;;;;;3.42;1.30;;;;;;;-144.51;100.00;69251.94;5108424;28;20035;-66
2021/10/05 11:19:28;;;;;;;6.18;1.20;;;;;;;-144.51;100.00;69251.94;5114904;28;20043;-66
2021/10/05 11:22:15;;;;;;;2.22;0.90;;;;;;;-144.51;100.00;69251.94;5116839;28;20040;-66
2021/10/05 11:25:00;;;;;;;3.38;1.48;;;;;;;-144.51;100.00;69251.94;5111598;28;20043;-66
2021/10/05 11:27:45;;;;;;;4.10;1.35;;;;;;;-144.51;100.00;69251.94;5109448;28;20044;-66
2021/10/05 11:30:30;;;;;;;6.13;1.40;;;;;;;-144.51;100.00;69251.94;5112841;28;20035;-66
2021/10/05 11:33:21;;;;;;;5.82;1.50;;;;;;;-144.51;100.00;69251.94;5107132;28;20035;-66
2021/10/05 11:36:18;;;;;;;4.78;1.30;;;;;;;-144.51;100.00;69251.94;5108199;28;20036;-66
2021/10/05 11:39:06;;;;;;;8.80;1.83;;;;;;;-144.51;100.00;69251.94;5113845;28;20032;-66
2021/10/05 11:42:12;;;;;;;2.30;1.50;;;;;;;-144.51;100.00;69251.94;5113073;28;20494;-66
2021/10/05 11:45:07;;;;;;;6.97;1.52;;;;;;;-144.51;100.00;69251.94;5112298;28;20036;-66
2021/10/05 11:47:56;;;;;;;6.07;1.70;;;;;;;-144.51;100.00;69251.94;5109118;28;20039;-66
2021/10/05 11:50:41;;;;;;;3.40;1.27;;;;;;;-144.51;100.00;69251.94;5116965;28;20036;-66
2021/10/05 11:53:34;;;;;;;6.57;2.22;;;;;;;-144.51;100.00;69251.94;5113421;28;20043;-66
2021/10/05 11:56:21;;;;;;;4.43;1.27;;;;;;;-144.51;100.00;69251.94;5111346;28;20106;-66
2021/10/05 11:59:06;;;;;;;2.88;1.08;;;;;;;-144.51;100.00;69251.94;5114057;28;20048;-66
2021/10/05 12:01:57;;;;;;;6.40;1.73;;;;;;;-144.51;100.00;69251.94;5116065;28;20039;-66
2021/10/05 12:04:46;;;;;;;4.82;1.17;;;;;;;-144.51;100.00;69251.94;5112066;28;20040;-67
2021/10/05 12:07:31;;;;;;;2.78;1.48;;;;;;;-144.51;100.00;69251.94;5117548;28;20036;-66
2021/10/05 12:10:17;;;;;;;5.60;0.98;;;;;;;-144.51;100.00;69251.94;5112959;28;20035;-66
2021/10/05 12:13:03;;;;;;;2.63;0.98;;;;;;;-144.51;100.00;69251.94;5112054;28;20036;-66
2021/10/05 12:15:47;;;;;;;5.55;1.52;;;;;;;-144.51;100.00;69251.94;5116861;28;20044;-65
2021/10/05 12:18:33;;;;;;;5.55;2.22;;;;;;;-144.51;100.00;69251.94;5113964;28;20035;-65
2021/10/05 12:21:18;;;;;;;4.70;1.15;;;;;;;-144.51;100.00;69251.94;5116445;28;20040;-66
2021/10/05 12:24:03;;;;;;;10.63;1.58;;;;;;;-144.51;100.00;69251.94;5120506;28;20398;-66
2021/10/05 12:26:50;;;;;;;11.30;1.33;;;;;;;-144.51;100.00;69251.94;5119200;28;20044;-66
2021/10/05 12:29:47;;;;;;;3.50;1.42;;;;;;;-144.51;100.00;69251.94;5114842;28;20390;-65